Time;durP1;ratioP1;P1;durP2;ratioP2;P2;SDS_P1;SDS_P2;PMS_P1;PMS_P2;Temp;Humidity;BMP_temperature;BMP_pressure;BME280_temperature;BME280_humidity;BME280_pressure;Samples;Min_cycle;Max_cycle;Signal;HPM_P1;HPM_P2
2023/04/15 00:02:22;;;;;;;8.63;7.63;;;;;;;;;;5062742;28;20427;-82
2023/04/15 00:04:51;;;;;;;9.77;7.40;;;;;;;;;;5064200;28;20422;-82
2023/04/15 00:07:17;;;;;;;11.30;7.77;;;;;;;;;;5066560;28;20422;-82
2023/04/15 00:09:45;;;;;;;9.30;7.72;;;;;;;;;;5065005;28;20469;-82
2023/04/15 00:12:11;;;;;;;10.25;8.25;;;;;;;;;;5062236;28;20426;-82
2023/04/15 00:14:38;;;;;;;10.63;8.32;;;;;;;;;;5065179;28;20386;-82
2023/04/15 00:17:04;;;;;;;9.73;8.43;;;;;;;;;;5063791;28;20472;-82
2023/04/15 00:19:31;;;;;;;9.95;7.97;;;;;;;;;;5065870;28;20439;-82
2023/04/15 00:21:59;;;;;;;11.23;8.32;;;;;;;;;;5063734;28;20443;-83
2023/04/15 00:24:25;;;;;;;10.95;8.50;;;;;;;;;;5069902;28;20437;-82
2023/04/15 00:26:52;;;;;;;10.18;8.10;;;;;;;;;;5057420;28;20795;-82
2023/04/15 00:29:19;;;;;;;11.32;8.10;;;;;;;;;;5067838;28;20427;-81
2023/04/15 00:31:45;;;;;;;12.35;9.57;;;;;;;;;;5065414;28;20443;-83
2023/04/15 00:34:12;;;;;;;11.00;9.27;;;;;;;;;;5067935;28;20880;-82
2023/04/15 00:36:38;;;;;;;12.10;9.32;;;;;;;;;;5064325;28;20917;-80
2023/04/15 00:39:06;;;;;;;13.00;8.77;;;;;;;;;;5066042;28;20442;-83
2023/04/15 00:41:33;;;;;;;11.07;9.30;;;;;;;;;;5065370;28;20427;-82
2023/04/15 00:44:01;;;;;;;11.13;8.57;;;;;;;;;;5067573;28;20785;-81
2023/04/15 00:46:28;;;;;;;13.48;9.85;;;;;;;;;;5070301;28;20777;-82
2023/04/15 00:48:55;;;;;;;11.93;9.40;;;;;;;;;;5071654;28;20424;-82
2023/04/15 00:51:22;;;;;;;13.00;9.40;;;;;;;;;;5067477;28;20421;-82
2023/04/15 00:53:48;;;;;;;12.18;9.85;;;;;;;;;;5070492;28;20901;-82
2023/04/15 00:56:16;;;;;;;12.68;9.98;;;;;;;;;;5069201;28;20921;-82
2023/04/15 00:58:43;;;;;;;12.10;9.20;;;;;;;;;;5067801;28;20428;-82
2023/04/15 01:01:10;;;;;;;13.30;10.82;;;;;;;;;;5066493;28;20961;-82
2023/04/15 01:03:36;;;;;;;11.75;9.75;;;;;;;;;;5070336;28;20443;-82
2023/04/15 01:06:03;;;;;;;11.20;9.20;;;;;;;;;;5069965;28;20423;-82
2023/04/15 01:08:29;;;;;;;14.15;10.90;;;;;;;;;;5053215;28;20434;-82
2023/04/15 01:10:56;;;;;;;13.20;10.05;;;;;;;;;;5071495;28;20432;-82
2023/04/15 01:13:25;;;;;;;13.20;10.05;;;;;;;;;;5064911;28;20456;-82
2023/04/15 01:15:52;;;;;;;14.15;9.32;;;;;;;;;;5067335;28;20429;-82
2023/04/15 01:18:18;;;;;;;12.30;10.00;;;;;;;;;;5068989;28;20421;-82
2023/04/15 01:20:45;;;;;;;14.88;9.90;;;;;;;;;;5069248;28;20419;-82
2023/04/15 01:23:12;;;;;;;15.73;11.25;;;;;;;;;;5065834;28;20516;-82
2023/04/15 01:25:41;;;;;;;17.20;12.23;;;;;;;;;;5068117;28;20454;-82
2023/04/15 01:28:08;;;;;;;14.32;10.88;;;;;;;;;;5069645;28;20500;-82
2023/04/15 01:30:35;;;;;;;14.27;10.60;;;;;;;;;;5061871;28;20421;-82
2023/04/15 01:33:02;;;;;;;14.68;11.20;;;;;;;;;;5069905;28;20434;-82
2023/04/15 01:35:28;;;;;;;14.25;10.52;;;;;;;;;;5069046;28;20933;-82
2023/04/15 01:37:57;;;;;;;15.73;11.93;;;;;;;;;;5067245;28;20433;-82
2023/04/15 01:40:23;;;;;;;14.75;11.73;;;;;;;;;;5065849;28;20911;-82
2023/04/15 01:42:51;;;;;;;14.73;11.52;;;;;;;;;;5071390;28;20419;-82
2023/04/15 01:45:17;;;;;;;14.85;11.65;;;;;;;;;;5068062;28;20411;-82
2023/04/15 01:47:44;;;;;;;15.75;11.45;;;;;;;;;;5071735;28;20436;-82
2023/04/15 01:50:10;;;;;;;14.63;11.90;;;;;;;;;;5070437;28;20573;-82
2023/04/15 01:52:37;;;;;;;16.77;12.45;;;;;;;;;;5070616;28;20840;-82
2023/04/15 01:55:05;;;;;;;16.80;13.35;;;;;;;;;;5069072;28;20842;-82
2023/04/15 01:57:31;;;;;;;18.20;13.88;;;;;;;;;;5072018;28;20445;-82
2023/04/15 02:00:01;;;;;;;17.70;13.20;;;;;;;;;;5065745;28;20917;-82
2023/04/15 02:02:28;;;;;;;17.05;13.40;;;;;;;;;;5066887;28;20428;-82
2023/04/15 02:04:54;;;;;;;14.70;11.97;;;;;;;;;;5067040;28;20488;-82
2023/04/15 02:07:20;;;;;;;22.38;15.10;;;;;;;;;;5068445;28;20444;-82
2023/04/15 02:09:48;;;;;;;21.13;14.60;;;;;;;;;;5066015;28;20415;-82
2023/04/15 02:12:15;;;;;;;17.85;13.60;;;;;;;;;;5070393;28;20434;-82
2023/04/15 02:14:41;;;;;;;20.65;14.70;;;;;;;;;;5065056;28;20410;-82
2023/04/15 02:17:09;;;;;;;18.08;13.88;;;;;;;;;;5063620;28;20951;-82
2023/04/15 02:19:35;;;;;;;21.35;15.93;;;;;;;;;;5066619;28;20774;-82
2023/04/15 02:22:02;;;;;;;21.40;15.63;;;;;;;;;;5066428;28;20460;-82
2023/04/15 02:24:29;;;;;;;19.98;15.82;;;;;;;;;;5064949;28;20436;-82
2023/04/15 02:26:56;;;;;;;20.20;16.13;;;;;;;;;;5065619;28;20449;-82
2023/04/15 02:29:22;;;;;;;19.80;15.77;;;;;;;;;;5063021;28;21368;-82
2023/04/15 02:31:49;;;;;;;19.30;14.43;;;;;;;;;;5069126;28;20485;-82
2023/04/15 02:34:17;;;;;;;19.10;15.13;;;;;;;;;;5069268;28;20771;-82
2023/04/15 02:36:43;;;;;;;25.13;16.98;;;;;;;;;;5066795;28;20407;-82
2023/04/15 02:39:10;;;;;;;22.60;16.10;;;;;;;;;;5073393;28;20785;-82
2023/04/15 02:41:36;;;;;;;20.88;16.05;;;;;;;;;;5068516;28;20445;-82
2023/04/15 02:44:02;;;;;;;21.25;15.93;;;;;;;;;;5064973;28;20417;-82
2023/04/15 02:46:29;;;;;;;19.23;15.02;;;;;;;;;;5065250;28;20423;-82
2023/04/15 02:48:56;;;;;;;18.88;15.07;;;;;;;;;;5069504;28;20439;-82
2023/04/15 02:51:23;;;;;;;19.90;16.10;;;;;;;;;;5067906;28;20912;-82
2023/04/15 02:53:50;;;;;;;21.75;16.30;;;;;;;;;;5065328;28;20423;-82
2023/04/15 02:56:18;;;;;;;20.85;16.33;;;;;;;;;;5069130;28;20785;-82
2023/04/15 02:58:44;;;;;;;23.60;17.15;;;;;;;;;;5067555;28;20419;-82
2023/04/15 03:01:11;;;;;;;23.63;17.75;;;;;;;;;;5065663;28;20508;-82
2023/04/15 03:03:37;;;;;;;24.00;17.80;;;;;;;;;;5069269;28;20925;-82
2023/04/15 03:06:04;;;;;;;21.90;17.25;;;;;;;;;;5068943;28;20440;-82
2023/04/15 03:08:31;;;;;;;23.80;17.50;;;;;;;;;;5063985;28;20793;-82
2023/04/15 03:10:59;;;;;;;26.80;16.70;;;;;;;;;;5069427;28;20435;-82
2023/04/15 03:13:26;;;;;;;22.45;17.42;;;;;;;;;;5071580;28;20422;-81
2023/04/15 03:15:52;;;;;;;26.45;18.00;;;;;;;;;;5066843;28;20959;-82
2023/04/15 03:18:18;;;;;;;23.58;16.85;;;;;;;;;;5068524;28;20431;-82
2023/04/15 03:20:45;;;;;;;26.25;19.13;;;;;;;;;;5067082;28;20432;-82
2023/04/15 03:23:11;;;;;;;22.40;15.93;;;;;;;;;;5068961;28;20500;-82
2023/04/15 03:25:39;;;;;;;21.60;16.10;;;;;;;;;;5063402;28;20429;-82
2023/04/15 03:28:07;;;;;;;23.40;17.15;;;;;;;;;;5068331;28;20797;-82
2023/04/15 03:30:34;;;;;;;22.23;15.05;;;;;;;;;;5064495;28;20438;-82
2023/04/15 03:33:00;;;;;;;20.40;15.20;;;;;;;;;;5067916;28;20431;-83
2023/04/15 03:35:27;;;;;;;20.50;16.10;;;;;;;;;;5067010;28;20422;-82
2023/04/15 03:37:53;;;;;;;20.13;15.43;;;;;;;;;;5064961;28;20416;-82
2023/04/15 03:40:20;;;;;;;23.77;16.35;;;;;;;;;;5067385;28;20434;-82
2023/04/15 03:42:48;;;;;;;19.70;15.80;;;;;;;;;;5066079;28;20425;-82
2023/04/15 03:45:15;;;;;;;21.92;17.23;;;;;;;;;;5070386;28;20453;-82
2023/04/15 03:47:42;;;;;;;23.77;17.08;;;;;;;;;;5073062;28;20411;-82
2023/04/15 03:50:09;;;;;;;23.75;15.75;;;;;;;;;;5065234;28;20420;-82
2023/04/15 03:52:35;;;;;;;22.60;17.48;;;;;;;;;;5068566;28;20450;-82
2023/04/15 03:55:02;;;;;;;24.80;17.38;;;;;;;;;;5071581;28;20419;-82
2023/04/15 03:57:28;;;;;;;23.70;17.20;;;;;;;;;;5067261;28;20421;-82
2023/04/15 03:59:57;;;;;;;25.47;18.47;;;;;;;;;;5067910;28;20872;-82
2023/04/15 04:02:23;;;;;;;23.63;18.40;;;;;;;;;;5065186;28;20430;-82
2023/04/15 04:04:49;;;;;;;25.52;18.27;;;;;;;;;;5067103;28;20419;-82
2023/04/15 04:07:16;;;;;;;24.77;17.98;;;;;;;;;;5068343;28;20463;-82
2023/04/15 04:09:43;;;;;;;26.08;19.48;;;;;;;;;;5067230;28;20400;-82
2023/04/15 04:12:09;;;;;;;26.55;19.10;;;;;;;;;;5068298;28;20428;-82
2023/04/15 04:14:35;;;;;;;27.40;19.50;;;;;;;;;;5067106;28;20940;-82
2023/04/15 04:17:03;;;;;;;28.38;20.38;;;;;;;;;;5064362;28;20431;-82
2023/04/15 04:19:30;;;;;;;30.02;20.63;;;;;;;;;;5071474;28;20459;-82
2023/04/15 04:21:56;;;;;;;31.20;21.70;;;;;;;;;;5066949;28;20950;-82
2023/04/15 04:24:24;;;;;;;30.60;21.47;;;;;;;;;;5070646;28;20513;-82
2023/04/15 04:26:50;;;;;;;31.27;22.03;;;;;;;;;;5071410;28;20515;-82
2023/04/15 04:29:16;;;;;;;34.95;22.95;;;;;;;;;;5064953;28;20425;-82
2023/04/15 04:31:43;;;;;;;33.70;23.50;;;;;;;;;;5065844;28;20425;-82
2023/04/15 04:34:11;;;;;;;38.92;24.35;;;;;;;;;;5063314;28;20428;-82
2023/04/15 04:36:37;;;;;;;34.85;23.25;;;;;;;;;;5073586;28;20415;-81
2023/04/15 04:39:03;;;;;;;31.63;22.05;;;;;;;;;;5070057;28;20431;-82
2023/04/15 04:41:31;;;;;;;32.53;23.50;;;;;;;;;;5068612;28;20434;-82
2023/04/15 04:43:57;;;;;;;32.47;23.20;;;;;;;;;;5072907;28;20424;-82
2023/04/15 04:46:23;;;;;;;32.17;22.87;;;;;;;;;;5072808;28;20437;-82
2023/04/15 04:48:50;;;;;;;36.20;24.52;;;;;;;;;;5071904;28;20431;-82
2023/04/15 04:51:17;;;;;;;33.10;23.90;;;;;;;;;;5070501;28;20807;-82
2023/04/15 04:53:45;;;;;;;35.42;24.25;;;;;;;;;;5073523;28;20427;-82
2023/04/15 04:56:12;;;;;;;36.30;24.60;;;;;;;;;;5071748;28;20429;-82
2023/04/15 04:58:38;;;;;;;35.17;23.80;;;;;;;;;;5072072;28;20809;-83
2023/04/15 05:01:05;;;;;;;36.85;24.35;;;;;;;;;;5071148;28;20434;-82
2023/04/15 05:03:32;;;;;;;35.85;24.10;;;;;;;;;;5069080;28;20431;-82
2023/04/15 05:05:58;;;;;;;34.38;24.52;;;;;;;;;;5068084;28;20792;-82
2023/04/15 05:08:26;;;;;;;37.40;23.90;;;;;;;;;;5072155;28;20432;-82
2023/04/15 05:10:55;;;;;;;36.40;24.83;;;;;;;;;;5070091;28;20420;-82
2023/04/15 05:13:22;;;;;;;36.83;23.67;;;;;;;;;;5069891;28;20948;-82
2023/04/15 05:15:49;;;;;;;38.08;24.55;;;;;;;;;;5071460;28;20507;-82
2023/04/15 05:18:16;;;;;;;34.00;22.95;;;;;;;;;;5073130;28;20431;-82
2023/04/15 05:20:42;;;;;;;33.35;22.92;;;;;;;;;;5070070;28;20419;-82
2023/04/15 05:23:08;;;;;;;32.28;22.77;;;;;;;;;;5068934;28;20433;-82
2023/04/15 05:25:36;;;;;;;33.50;23.37;;;;;;;;;;5069065;28;20428;-82
2023/04/15 05:28:03;;;;;;;34.30;23.15;;;;;;;;;;5071603;28;20970;-81
2023/04/15 05:30:29;;;;;;;35.08;23.05;;;;;;;;;;5068229;28;20436;-81
2023/04/15 05:32:55;;;;;;;31.35;21.92;;;;;;;;;;5068884;28;20411;-82
2023/04/15 05:35:23;;;;;;;33.55;23.45;;;;;;;;;;5071525;28;20429;-82
2023/04/15 05:37:50;;;;;;;34.53;23.15;;;;;;;;;;5067385;28;20440;-82
2023/04/15 05:40:16;;;;;;;33.10;22.60;;;;;;;;;;5071135;28;20503;-82
2023/04/15 05:42:44;;;;;;;34.85;23.63;;;;;;;;;;5070708;28;20419;-82
2023/04/15 05:45:11;;;;;;;35.83;22.95;;;;;;;;;;5070496;28;20472;-81
2023/04/15 05:47:37;;;;;;;32.33;22.67;;;;;;;;;;5072185;28;20423;-82
2023/04/15 05:50:05;;;;;;;37.15;23.63;;;;;;;;;;5066837;28;20420;-82
2023/04/15 05:52:31;;;;;;;33.65;23.02;;;;;;;;;;5067189;28;20424;-82
2023/04/15 05:54:58;;;;;;;31.95;23.13;;;;;;;;;;5070503;28;20424;-81
2023/04/15 05:57:24;;;;;;;36.50;22.10;;;;;;;;;;5068317;28;20428;-81
2023/04/15 05:59:52;;;;;;;33.10;22.05;;;;;;;;;;5069053;28;20473;-82
2023/04/15 06:02:18;;;;;;;33.85;23.70;;;;;;;;;;5068471;28;20423;-82
2023/04/15 06:04:45;;;;;;;35.55;23.02;;;;;;;;;;5069529;28;20412;-81
2023/04/15 06:07:11;;;;;;;35.97;22.83;;;;;;;;;;5073702;28;20477;-81
2023/04/15 06:09:40;;;;;;;34.15;23.55;;;;;;;;;;5066808;28;20433;-81
2023/04/15 06:12:10;;;;;;;35.47;24.67;;;;;;;;;;5070391;28;20435;-81
2023/04/15 06:14:37;;;;;;;36.50;24.20;;;;;;;;;;5067652;28;20495;-81
2023/04/15 06:17:05;;;;;;;36.05;23.50;;;;;;;;;;5068887;28;20430;-81
2023/04/15 06:19:31;;;;;;;36.90;24.20;;;;;;;;;;5067457;28;20441;-81
2023/04/15 06:21:58;;;;;;;34.70;24.70;;;;;;;;;;5074162;28;20478;-81
2023/04/15 06:24:25;;;;;;;35.20;23.90;;;;;;;;;;5068212;28;20432;-82
2023/04/15 06:26:51;;;;;;;36.00;24.00;;;;;;;;;;5067183;28;20435;-81
2023/04/15 06:29:20;;;;;;;37.05;22.60;;;;;;;;;;5067442;28;20422;-81
2023/04/15 06:31:47;;;;;;;34.03;24.67;;;;;;;;;;5071646;28;20431;-81
2023/04/15 06:34:16;;;;;;;35.22;24.20;;;;;;;;;;5071912;28;20412;-82
2023/04/15 06:36:42;;;;;;;32.63;23.20;;;;;;;;;;5066941;28;20435;-81
2023/04/15 06:39:10;;;;;;;34.35;24.00;;;;;;;;;;5078509;28;20412;-81
2023/04/15 06:41:37;;;;;;;33.58;23.65;;;;;;;;;;5071647;28;20415;-81
2023/04/15 06:44:03;;;;;;;30.83;22.90;;;;;;;;;;5070085;28;20505;-81
2023/04/15 06:46:30;;;;;;;34.33;23.15;;;;;;;;;;5074043;28;20443;-81
2023/04/15 06:48:57;;;;;;;30.98;22.45;;;;;;;;;;5068310;28;20433;-81
2023/04/15 06:51:25;;;;;;;32.20;23.73;;;;;;;;;;5069815;28;20434;-81
2023/04/15 06:53:52;;;;;;;32.78;22.63;;;;;;;;;;5070267;28;20515;-82
2023/04/15 06:56:18;;;;;;;31.77;21.67;;;;;;;;;;5073057;28;20429;-81
2023/04/15 06:58:44;;;;;;;30.10;22.13;;;;;;;;;;5070393;28;20411;-81
2023/04/15 07:01:12;;;;;;;28.23;20.83;;;;;;;;;;5069695;28;20420;-81
2023/04/15 07:03:40;;;;;;;29.77;21.20;;;;;;;;;;5070148;28;20470;-81
2023/04/15 07:06:08;;;;;;;30.05;20.55;;;;;;;;;;5070351;28;20507;-81
2023/04/15 07:08:35;;;;;;;25.97;20.03;;;;;;;;;;5067334;28;20424;-82
2023/04/15 07:11:02;;;;;;;28.95;20.55;;;;;;;;;;5067694;28;20426;-81
2023/04/15 07:13:31;;;;;;;26.80;18.65;;;;;;;;;;5068919;28;20427;-81
2023/04/15 07:15:57;;;;;;;24.35;18.00;;;;;;;;;;5065525;28;20427;-81
2023/04/15 07:18:24;;;;;;;23.83;18.20;;;;;;;;;;5069351;28;20793;-82
2023/04/15 07:20:51;;;;;;;22.30;15.98;;;;;;;;;;5064403;28;20423;-80
2023/04/15 07:23:17;;;;;;;19.30;16.42;;;;;;;;;;5062608;28;20476;-80
2023/04/15 07:25:45;;;;;;;20.75;15.82;;;;;;;;;;5066051;28;20788;-80
2023/04/15 07:28:12;;;;;;;17.35;13.80;;;;;;;;;;5071161;28;20454;-80
2023/04/15 07:30:39;;;;;;;16.73;13.07;;;;;;;;;;5072211;28;20420;-80
2023/04/15 07:33:05;;;;;;;19.88;13.95;;;;;;;;;;5070771;28;20812;-81
2023/04/15 07:35:32;;;;;;;15.32;13.35;;;;;;;;;;5066817;28;20425;-79
2023/04/15 07:37:58;;;;;;;16.92;13.50;;;;;;;;;;5068786;28;20492;-80
2023/04/15 07:40:25;;;;;;;16.40;13.25;;;;;;;;;;5070718;28;20418;-80
2023/04/15 07:42:53;;;;;;;15.38;12.70;;;;;;;;;;5072077;28;20419;-81
2023/04/15 07:45:19;;;;;;;16.80;13.85;;;;;;;;;;5069140;28;20523;-80
2023/04/15 07:47:46;;;;;;;16.15;13.13;;;;;;;;;;5071065;28;20439;-81
2023/04/15 07:50:13;;;;;;;16.25;13.48;;;;;;;;;;5076834;28;20419;-80
2023/04/15 07:52:40;;;;;;;17.77;12.98;;;;;;;;;;5071865;28;20439;-80
2023/04/15 07:55:10;;;;;;;16.77;13.50;;;;;;;;;;5076323;28;20407;-80
2023/04/15 07:57:36;;;;;;;15.57;12.30;;;;;;;;;;5075246;28;20841;-81
2023/04/15 08:00:06;;;;;;;16.02;13.18;;;;;;;;;;5074013;28;20415;-80
2023/04/15 08:02:32;;;;;;;13.75;12.02;;;;;;;;;;5073077;28;20435;-81
2023/04/15 08:05:01;;;;;;;14.05;11.68;;;;;;;;;;5071946;28;20947;-81
2023/04/15 08:07:28;;;;;;;17.10;11.60;;;;;;;;;;5074070;28;20516;-81
2023/04/15 08:09:54;;;;;;;13.93;11.43;;;;;;;;;;5073280;28;20423;-80
2023/04/15 08:12:20;;;;;;;14.85;10.73;;;;;;;;;;5074932;28;20415;-80
2023/04/15 08:14:47;;;;;;;13.15;11.45;;;;;;;;;;5066867;28;20429;-81
2023/04/15 08:17:15;;;;;;;13.85;11.98;;;;;;;;;;5070949;28;20435;-80
2023/04/15 08:19:41;;;;;;;15.93;12.20;;;;;;;;;;5068680;28;20462;-80
2023/04/15 08:22:08;;;;;;;15.13;13.13;;;;;;;;;;5066109;28;20883;-80
2023/04/15 08:24:34;;;;;;;13.17;10.93;;;;;;;;;;5070635;28;20916;-80
2023/04/15 08:27:03;;;;;;;12.73;10.23;;;;;;;;;;5071253;28;20407;-80
2023/04/15 08:29:31;;;;;;;12.02;9.95;;;;;;;;;;5069534;28;20416;-80
2023/04/15 08:31:59;;;;;;;13.85;9.45;;;;;;;;;;5073182;28;20449;-80
2023/04/15 08:34:27;;;;;;;12.55;8.98;;;;;;;;;;5073736;28;20909;-81
2023/04/15 08:36:53;;;;;;;10.98;8.50;;;;;;;;;;5073167;28;20912;-81
2023/04/15 08:39:20;;;;;;;10.23;8.00;;;;;;;;;;5072849;28;20426;-80
2023/04/15 08:41:47;;;;;;;11.90;8.90;;;;;;;;;;5072745;28;20435;-81
2023/04/15 08:44:14;;;;;;;10.65;8.50;;;;;;;;;;5073600;28;20404;-80
2023/04/15 08:46:41;;;;;;;12.20;8.50;;;;;;;;;;5070484;28;20440;-81
2023/04/15 08:49:10;;;;;;;9.27;7.50;;;;;;;;;;5069842;28;20386;-80
2023/04/15 08:51:38;;;;;;;7.38;6.60;;;;;;;;;;5069429;28;20482;-81
2023/04/15 08:54:05;;;;;;;9.55;7.65;;;;;;;;;;5070048;28;20427;-80
2023/04/15 08:56:32;;;;;;;9.90;8.05;;;;;;;;;;5071116;28;20883;-80
2023/04/15 08:58:59;;;;;;;10.32;7.82;;;;;;;;;;5066753;28;20460;-81
2023/04/15 09:01:26;;;;;;;9.15;7.57;;;;;;;;;;5065197;28;20440;-81
2023/04/15 09:03:53;;;;;;;12.07;7.63;;;;;;;;;;5065748;28;20435;-80
2023/04/15 09:06:20;;;;;;;9.75;7.13;;;;;;;;;;5068764;28;20431;-83
2023/04/15 09:08:47;;;;;;;9.23;7.07;;;;;;;;;;5063399;28;20442;-80
2023/04/15 09:11:14;;;;;;;9.45;7.10;;;;;;;;;;5071781;28;21094;-81
2023/04/15 09:13:40;;;;;;;8.60;6.40;;;;;;;;;;5071120;28;20411;-80
2023/04/15 09:16:08;;;;;;;8.47;5.50;;;;;;;;;;5058982;28;20946;-80
2023/04/15 09:18:35;;;;;;;6.60;5.90;;;;;;;;;;5064288;28;20433;-80
2023/04/15 09:21:05;;;;;;;9.73;6.30;;;;;;;;;;5069739;28;20422;-80
2023/04/15 09:23:32;;;;;;;7.20;5.70;;;;;;;;;;5070219;28;20510;-79
2023/04/15 09:26:00;;;;;;;7.50;6.03;;;;;;;;;;5072010;28;20415;-78
2023/04/15 09:28:27;;;;;;;7.03;6.00;;;;;;;;;;5066659;28;20815;-78
2023/04/15 09:30:56;;;;;;;7.43;6.20;;;;;;;;;;5066669;28;20960;-78
2023/04/15 09:33:23;;;;;;;6.28;5.50;;;;;;;;;;5066354;28;20431;-78
2023/04/15 09:35:59;;;;;;;6.20;5.43;;;;;;;;;;5065628;28;20424;-78
2023/04/15 09:38:28;;;;;;;7.55;6.15;;;;;;;;;;5068759;28;20423;-78
2023/04/15 09:40:55;;;;;;;6.82;6.00;;;;;;;;;;5064271;28;20428;-77
2023/04/15 09:43:23;;;;;;;6.63;5.93;;;;;;;;;;5070581;28;20430;-77
2023/04/15 09:45:50;;;;;;;7.60;5.60;;;;;;;;;;5066457;28;20423;-78
2023/04/15 09:48:17;;;;;;;6.75;5.82;;;;;;;;;;5066120;28;20431;-77
2023/04/15 09:50:44;;;;;;;8.02;6.25;;;;;;;;;;5065213;28;20424;-78
2023/04/15 09:53:11;;;;;;;6.25;5.63;;;;;;;;;;5070553;28;20427;-78
2023/04/15 09:55:37;;;;;;;8.55;6.00;;;;;;;;;;5067848;28;20483;-80
2023/04/15 09:58:08;;;;;;;6.78;6.10;;;;;;;;;;5068934;28;20427;-80
2023/04/15 10:00:37;;;;;;;6.15;5.50;;;;;;;;;;5060662;28;20436;-79
2023/04/15 10:03:04;;;;;;;6.05;5.45;;;;;;;;;;5070781;28;20425;-79
2023/04/15 10:05:31;;;;;;;7.07;5.90;;;;;;;;;;5065391;28;20417;-79
2023/04/15 10:07:58;;;;;;;7.50;6.70;;;;;;;;;;5064770;28;20428;-79
2023/04/15 10:10:24;;;;;;;6.55;5.78;;;;;;;;;;5063633;28;20962;-81
2023/04/15 10:12:52;;;;;;;8.25;5.88;;;;;;;;;;5065564;28;20432;-81
2023/04/15 10:15:18;;;;;;;9.80;7.28;;;;;;;;;;5061544;28;20421;-81
2023/04/15 10:17:47;;;;;;;8.77;7.95;;;;;;;;;;5059278;28;20976;-81
2023/04/15 10:20:15;;;;;;;9.52;7.63;;;;;;;;;;5069903;28;20423;-80
2023/04/15 10:22:42;;;;;;;9.13;7.85;;;;;;;;;;5064006;28;20442;-80
2023/04/15 10:25:09;;;;;;;9.43;7.60;;;;;;;;;;5065164;28;20426;-80
2023/04/15 10:27:36;;;;;;;8.40;7.60;;;;;;;;;;5061675;28;20450;-80
2023/04/15 10:30:03;;;;;;;8.50;7.60;;;;;;;;;;5066195;28;20423;-81
2023/04/15 10:32:30;;;;;;;8.40;7.50;;;;;;;;;;5067675;28;20496;-81
2023/04/15 10:34:58;;;;;;;9.60;7.93;;;;;;;;;;5065890;28;20423;-80
2023/04/15 10:37:34;;;;;;;9.32;8.20;;;;;;;;;;5064504;28;20449;-81
2023/04/15 10:40:01;;;;;;;9.40;8.20;;;;;;;;;;5064244;28;20419;-82
2023/04/15 10:42:34;;;;;;;9.48;8.20;;;;;;;;;;5071997;28;20465;-81
2023/04/15 10:45:00;;;;;;;9.35;8.18;;;;;;;;;;5064753;28;20919;-80
2023/04/15 10:47:27;;;;;;;9.18;8.18;;;;;;;;;;5067370;28;20432;-81
2023/04/15 10:49:57;;;;;;;10.10;8.60;;;;;;;;;;5067763;28;20510;-81
2023/04/15 10:52:26;;;;;;;12.45;9.35;;;;;;;;;;5068986;28;20430;-79
2023/04/15 10:55:02;;;;;;;10.48;8.95;;;;;;;;;;5068678;28;20424;-81
2023/04/15 10:57:34;;;;;;;10.50;9.40;;;;;;;;;;5072608;28;20431;-81
2023/04/15 11:00:05;;;;;;;11.52;9.90;;;;;;;;;;5068034;28;20434;-79
2023/04/15 11:02:45;;;;;;;13.63;10.40;;;;;;;;;;5067333;28;20825;-79
2023/04/15 11:05:19;;;;;;;11.73;9.90;;;;;;;;;;5069342;28;20526;-80
2023/04/15 11:07:51;;;;;;;11.65;9.98;;;;;;;;;;5068109;28;21151;-79
2023/04/15 11:10:52;;;;;;;13.10;10.50;;;;;;;;;;5068118;28;20422;-79
2023/04/15 11:13:21;;;;;;;14.35;11.20;;;;;;;;;;5067542;28;20431;-81
2023/04/15 11:15:48;;;;;;;14.60;11.80;;;;;;;;;;5065306;28;20413;-79
2023/04/15 11:18:15;;;;;;;16.33;11.23;;;;;;;;;;5069377;28;20427;-79
2023/04/15 11:20:43;;;;;;;17.90;12.80;;;;;;;;;;5072285;28;20415;-80
2023/04/15 11:23:11;;;;;;;15.63;12.07;;;;;;;;;;5072012;28;20530;-79
2023/04/15 11:25:38;;;;;;;15.63;12.50;;;;;;;;;;5070128;28;20932;-79
2023/04/15 11:28:04;;;;;;;16.45;13.20;;;;;;;;;;5070099;28;20447;-79
2023/04/15 11:30:32;;;;;;;18.10;13.63;;;;;;;;;;5069419;28;20792;-80
2023/04/15 11:33:00;;;;;;;18.30;14.00;;;;;;;;;;5068274;28;20924;-79
2023/04/15 11:35:27;;;;;;;20.50;14.23;;;;;;;;;;5067971;28;21009;-80
2023/04/15 11:37:54;;;;;;;17.17;13.45;;;;;;;;;;5069195;28;20426;-79
2023/04/15 11:40:24;;;;;;;18.23;13.90;;;;;;;;;;5066043;28;20449;-80
2023/04/15 11:43:03;;;;;;;20.02;15.05;;;;;;;;;;5068189;28;20797;-80
2023/04/15 11:45:30;;;;;;;20.67;15.18;;;;;;;;;;5065472;28;21680;-80
2023/04/15 11:48:04;;;;;;;20.55;15.50;;;;;;;;;;5068534;28;20480;-81
2023/04/15 11:50:32;;;;;;;21.63;16.70;;;;;;;;;;5062185;28;20516;-80
2023/04/15 11:53:00;;;;;;;23.55;17.23;;;;;;;;;;5071803;28;20430;-81
2023/04/15 11:55:28;;;;;;;25.88;17.73;;;;;;;;;;5054236;28;20998;-80
2023/04/15 11:58:07;;;;;;;27.50;19.25;;;;;;;;;;5068806;28;20435;-80
2023/04/15 12:00:33;;;;;;;28.13;18.80;;;;;;;;;;5068581;28;20846;-80
2023/04/15 12:03:11;;;;;;;27.97;19.23;;;;;;;;;;5067032;28;20986;-80
2023/04/15 12:05:59;;;;;;;26.48;19.30;;;;;;;;;;5066564;28;20785;-80
2023/04/15 12:08:26;;;;;;;27.40;20.00;;;;;;;;;;5069136;28;20492;-80
2023/04/15 12:10:58;;;;;;;30.83;20.17;;;;;;;;;;5066579;28;20929;-80
2023/04/15 12:13:27;;;;;;;31.65;21.13;;;;;;;;;;5068532;28;20455;-80
2023/04/15 12:15:55;;;;;;;33.25;21.45;;;;;;;;;;5066959;28;20431;-80
2023/04/15 12:18:21;;;;;;;30.90;20.77;;;;;;;;;;5071584;28;20426;-81
2023/04/15 12:20:49;;;;;;;32.08;21.17;;;;;;;;;;5068757;28;20431;-81
2023/04/15 12:23:19;;;;;;;34.72;22.67;;;;;;;;;;5067782;28;20423;-80
2023/04/15 12:25:51;;;;;;;36.85;23.83;;;;;;;;;;5068883;28;20419;-80
2023/04/15 12:28:19;;;;;;;34.20;22.65;;;;;;;;;;5067046;28;20425;-81
2023/04/15 12:30:50;;;;;;;33.00;22.83;;;;;;;;;;5069318;28;20460;-80
2023/04/15 12:33:16;;;;;;;39.67;25.33;;;;;;;;;;5067421;28;20485;-80
2023/04/15 12:35:43;;;;;;;35.58;23.30;;;;;;;;;;5069966;28;20423;-80
2023/04/15 12:38:09;;;;;;;37.13;23.58;;;;;;;;;;5061159;28;20795;-80
2023/04/15 12:40:35;;;;;;;39.13;24.13;;;;;;;;;;5071244;28;20433;-80
2023/04/15 12:43:02;;;;;;;40.65;25.35;;;;;;;;;;5071087;28;20433;-81
2023/04/15 12:45:30;;;;;;;39.80;25.45;;;;;;;;;;5070388;28;20920;-81
2023/04/15 12:47:56;;;;;;;41.40;27.05;;;;;;;;;;5075324;28;20419;-80
2023/04/15 12:50:23;;;;;;;43.50;27.23;;;;;;;;;;5074694;28;20438;-80
2023/04/15 12:52:49;;;;;;;47.55;28.67;;;;;;;;;;5069725;28;20434;-81
2023/04/15 12:55:16;;;;;;;47.92;28.88;;;;;;;;;;5069945;28;20436;-81
2023/04/15 12:57:42;;;;;;;42.70;29.23;;;;;;;;;;5070448;28;20916;-80
2023/04/15 13:00:09;;;;;;;49.15;30.00;;;;;;;;;;5068568;28;20435;-81
2023/04/15 13:02:37;;;;;;;45.55;30.30;;;;;;;;;;5071413;28;20433;-80
2023/04/15 13:05:04;;;;;;;48.95;30.33;;;;;;;;;;5074165;28;20427;-81
2023/04/15 13:07:30;;;;;;;50.30;30.55;;;;;;;;;;5069101;28;20938;-79
2023/04/15 13:09:57;;;;;;;54.90;33.38;;;;;;;;;;5067999;28;20436;-82
2023/04/15 13:12:23;;;;;;;52.88;33.53;;;;;;;;;;5071729;28;20437;-79
2023/04/15 13:14:50;;;;;;;57.33;36.38;;;;;;;;;;5072322;28;20931;-79
2023/04/15 13:17:19;;;;;;;55.53;35.65;;;;;;;;;;5070036;28;20423;-82
2023/04/15 13:19:46;;;;;;;59.07;36.40;;;;;;;;;;5070999;28;20811;-80
2023/04/15 13:22:14;;;;;;;58.00;37.20;;;;;;;;;;5071512;28;20981;-80
2023/04/15 13:24:41;;;;;;;61.08;38.30;;;;;;;;;;5072759;28;20411;-80
2023/04/15 13:27:07;;;;;;;61.38;38.70;;;;;;;;;;5073690;28;20827;-80
2023/04/15 13:29:33;;;;;;;62.40;38.67;;;;;;;;;;5064300;28;20459;-80
2023/04/15 13:32:00;;;;;;;62.80;39.97;;;;;;;;;;5068004;28;20432;-80
2023/04/15 13:34:26;;;;;;;66.32;41.88;;;;;;;;;;5071674;28;20418;-79
2023/04/15 13:36:55;;;;;;;61.88;40.97;;;;;;;;;;5065474;28;20430;-81
2023/04/15 13:39:21;;;;;;;60.13;41.47;;;;;;;;;;5066362;28;20436;-79
2023/04/15 13:41:48;;;;;;;58.47;40.40;;;;;;;;;;5071874;28;20553;-81
2023/04/15 13:44:16;;;;;;;53.70;38.13;;;;;;;;;;5064557;28;20409;-79
2023/04/15 13:46:44;;;;;;;48.60;35.15;;;;;;;;;;5071125;28;20423;-80
2023/04/15 13:49:11;;;;;;;46.22;35.25;;;;;;;;;;5074960;28;20414;-81
2023/04/15 13:51:37;;;;;;;48.03;34.47;;;;;;;;;;5060401;28;20416;-80
2023/04/15 13:54:05;;;;;;;49.70;35.50;;;;;;;;;;5065309;28;20446;-81
2023/04/15 13:56:31;;;;;;;49.38;35.30;;;;;;;;;;5070425;28;20423;-80
2023/04/15 13:59:01;;;;;;;52.90;38.25;;;;;;;;;;5072813;28;20435;-80
2023/04/15 14:01:27;;;;;;;51.40;36.88;;;;;;;;;;5073988;28;20415;-79
2023/04/15 14:03:53;;;;;;;52.53;38.25;;;;;;;;;;5073341;28;20419;-82
2023/04/15 14:06:20;;;;;;;52.95;38.13;;;;;;;;;;5073464;28;20415;-79
2023/04/15 14:08:46;;;;;;;52.53;38.63;;;;;;;;;;5070197;28;20437;-79
2023/04/15 14:11:14;;;;;;;56.05;39.67;;;;;;;;;;5069711;28;20447;-80
2023/04/15 14:13:40;;;;;;;51.92;39.63;;;;;;;;;;5072293;28;20461;-79
2023/04/15 14:16:07;;;;;;;54.70;38.83;;;;;;;;;;5065414;28;20420;-79
2023/04/15 14:18:33;;;;;;;50.55;38.38;;;;;;;;;;5073642;28;20415;-79
2023/04/15 14:20:59;;;;;;;51.00;37.00;;;;;;;;;;5069427;28;20443;-80
2023/04/15 14:23:26;;;;;;;49.97;37.53;;;;;;;;;;5069948;28;20432;-79